Time;durP1;ratioP1;P1;durP2;ratioP2;P2;SDS_P1;SDS_P2;PMS_P1;PMS_P2;Temp;Humidity;BMP_temperature;BMP_pressure;BME280_temperature;BME280_humidity;BME280_pressure;Samples;Min_cycle;Max_cycle;Signal;HPM_P1;HPM_P2
2021/05/03 00:00:09;;;;;;;23.50;4.20;;;;;;;21.17;51.83;99227.22;5059011;28;20091;-74
2021/05/03 00:02:35;;;;;;;15.27;3.42;;;;;;;21.24;51.76;99231.41;5058026;28;20165;-69
2021/05/03 00:05:05;;;;;;;21.77;3.88;;;;;;;21.27;51.88;99239.00;5058952;28;20044;-69
2021/05/03 00:07:31;;;;;;;16.67;3.33;;;;;;;21.33;51.48;99238.03;5058774;28;20060;-69
2021/05/03 00:09:56;;;;;;;19.52;3.88;;;;;;;21.47;49.61;99257.38;5059084;28;20037;-74
2021/05/03 00:12:22;;;;;;;24.55;4.22;;;;;;;21.60;46.22;99264.31;5061579;28;20036;-69
2021/05/03 00:14:47;;;;;;;19.80;4.00;;;;;;;21.59;44.23;99260.81;5060465;28;20091;-74
2021/05/03 00:17:13;;;;;;;15.13;3.20;;;;;;;21.71;43.34;99254.53;5057864;28;20040;-74
2021/05/03 00:19:38;;;;;;;16.90;3.83;;;;;;;21.83;42.49;99253.38;5057576;28;20033;-74
2021/05/03 00:22:04;;;;;;;21.25;3.20;;;;;;;21.95;41.65;99247.91;5058842;28;20036;-69
2021/05/03 00:24:29;;;;;;;21.05;3.92;;;;;;;22.08;41.05;99246.75;5057427;28;20319;-75
2021/05/03 00:26:55;;;;;;;23.92;4.05;;;;;;;22.16;40.65;99254.41;5061537;28;20033;-74
2021/05/03 00:29:20;;;;;;;74.63;5.80;;;;;;;22.15;39.70;99256.31;5060965;28;20025;-69
2021/05/03 00:31:46;;;;;;;27.13;4.18;;;;;;;22.20;39.37;99258.25;5060422;28;20082;-74
2021/05/03 00:34:13;;;;;;;29.23;4.07;;;;;;;22.33;38.64;99248.97;5061080;28;20100;-72
2021/05/03 00:36:38;;;;;;;28.75;4.13;;;;;;;22.42;37.92;99242.06;5057403;28;20099;-75
2021/05/03 00:39:04;;;;;;;30.55;4.32;;;;;;;22.45;37.58;99237.00;5058545;28;20041;-74
2021/05/03 00:41:29;;;;;;;17.83;3.50;;;;;;;22.53;37.28;99217.66;5057121;28;20020;-69
2021/05/03 00:43:55;;;;;;;19.92;3.53;;;;;;;22.59;36.92;99227.44;5057804;28;20047;-69
2021/05/03 00:46:21;;;;;;;17.27;3.33;;;;;;;22.54;37.01;99231.97;5057932;28;20028;-69
2021/05/03 00:48:48;;;;;;;26.10;3.60;;;;;;;22.44;37.11;99240.75;5059757;28;20084;-75
2021/05/03 00:51:13;;;;;;;20.42;4.03;;;;;;;22.46;37.05;99235.09;5061164;28;20048;-70
2021/05/03 00:53:39;;;;;;;17.65;3.25;;;;;;;22.51;36.12;99225.19;5059341;28;20060;-69
2021/05/03 00:56:05;;;;;;;20.33;3.47;;;;;;;22.46;36.53;99238.63;5057152;28;20400;-75
2021/05/03 00:58:31;;;;;;;15.75;3.17;;;;;;;22.30;36.35;99234.09;5057247;28;20055;-69
2021/05/03 01:00:57;;;;;;;20.60;3.28;;;;;;;22.27;36.18;99238.13;5061423;28;20048;-75
2021/05/03 01:03:22;;;;;;;19.65;3.50;;;;;;;22.41;35.60;99251.25;5060839;28;20147;-75
2021/05/03 01:05:48;;;;;;;23.65;3.53;;;;;;;22.46;35.44;99249.41;5065127;28;20032;-75
2021/05/03 01:08:13;;;;;;;16.23;3.10;;;;;;;22.35;35.49;99250.34;5058368;28;20029;-69
2021/05/03 01:10:39;;;;;;;27.77;3.83;;;;;;;22.30;35.58;99242.19;5057186;28;20041;-75
2021/05/03 01:13:04;;;;;;;23.67;4.22;;;;;;;22.27;35.93;99248.09;5057396;28;20210;-69
2021/05/03 01:15:30;;;;;;;22.00;4.13;;;;;;;22.19;35.85;99237.75;5057741;28;20052;-75
2021/05/03 01:18:00;;;;;;;15.82;3.22;;;;;;;22.24;35.75;99246.72;5059606;28;20232;-75
2021/05/03 01:20:44;;;;;;;16.35;3.13;;;;;;;22.22;35.80;99250.72;5060626;28;20048;-69
2021/05/03 01:23:10;;;;;;;15.73;3.67;;;;;;;22.18;35.43;99255.81;5057398;28;20041;-69
2021/05/03 01:25:38;;;;;;;19.85;3.42;;;;;;;22.20;35.33;99250.97;5057402;28;20029;-75
2021/05/03 01:28:06;;;;;;;22.73;3.75;;;;;;;22.17;35.90;99258.75;5058500;28;20075;-70
2021/05/03 01:30:39;;;;;;;23.05;3.42;;;;;;;22.12;35.46;99254.09;5057342;28;20036;-75
2021/05/03 01:33:06;;;;;;;13.98;2.70;;;;;;;22.12;35.02;99262.19;5062880;28;20032;-70
2021/05/03 01:35:32;;;;;;;18.42;3.80;;;;;;;22.03;34.88;99262.88;5063410;28;20211;-75
2021/05/03 01:38:00;;;;;;;19.42;3.53;;;;;;;22.04;34.85;99264.50;5062638;28;20059;-75
2021/05/03 01:40:28;;;;;;;28.42;3.83;;;;;;;21.91;34.83;99260.25;5063795;28;20029;-69
2021/05/03 01:42:54;;;;;;;21.15;3.28;;;;;;;21.99;34.65;99266.03;5062960;28;20215;-69
2021/05/03 01:45:26;;;;;;;24.85;3.65;;;;;;;22.01;34.51;99275.75;5065313;28;20086;-75
2021/05/03 01:47:54;;;;;;;24.77;3.53;;;;;;;21.99;34.05;99278.69;5065235;28;20033;-69
2021/05/03 01:50:21;;;;;;;60.95;6.70;;;;;;;21.92;34.07;99283.44;5064758;28;20041;-74
2021/05/03 01:52:47;;;;;;;13.80;2.67;;;;;;;21.98;33.60;99266.28;5061283;28;20036;-75
2021/05/03 01:55:13;;;;;;;28.65;4.05;;;;;;;21.95;33.21;99266.78;5060528;28;20051;-70
2021/05/03 01:57:39;;;;;;;23.42;3.60;;;;;;;21.83;32.69;99269.53;5061578;28;20025;-74
2021/05/03 02:00:07;;;;;;;26.08;3.22;;;;;;;21.87;31.81;99276.09;5061240;28;20108;-74
2021/05/03 02:02:33;;;;;;;24.10;3.10;;;;;;;21.88;31.61;99266.13;5061910;28;20105;-69
2021/05/03 02:04:58;;;;;;;40.20;3.78;;;;;;;21.80;31.64;99259.25;5060738;28;20037;-70
2021/05/03 02:07:23;;;;;;;20.73;3.30;;;;;;;21.79;31.65;99251.41;5060389;28;20025;-70
2021/05/03 02:09:49;;;;;;;26.20;3.03;;;;;;;21.87;32.03;99262.63;5062810;28;20040;-75
2021/05/03 02:12:14;;;;;;;17.25;3.28;;;;;;;21.90;32.05;99272.91;5060433;28;20028;-69
2021/05/03 02:14:42;;;;;;;22.05;3.65;;;;;;;21.81;32.01;99268.16;5065997;28;20032;-69
2021/05/03 02:17:08;;;;;;;21.08;3.50;;;;;;;21.71;32.11;99270.69;5058981;28;21571;-75
2021/05/03 02:19:34;;;;;;;46.22;6.10;;;;;;;21.78;31.90;99288.31;5060294;28;20032;-69
2021/05/03 02:22:00;;;;;;;24.27;2.90;;;;;;;21.67;31.61;99291.91;5061085;28;20029;-75
2021/05/03 02:24:26;;;;;;;21.05;3.63;;;;;;;21.64;31.44;99305.88;5058587;28;20075;-69
2021/05/03 02:26:51;;;;;;;30.70;3.00;;;;;;;21.69;31.27;99316.75;5059727;28;20078;-74
2021/05/03 02:29:17;;;;;;;24.52;3.25;;;;;;;21.71;30.88;99316.50;5063801;28;20043;-74
2021/05/03 02:31:42;;;;;;;25.88;3.08;;;;;;;21.67;30.54;99305.38;5059496;28;20029;-70
2021/05/03 02:34:08;;;;;;;26.58;2.83;;;;;;;21.75;30.52;99320.34;5060663;28;20037;-69
2021/05/03 02:36:33;;;;;;;37.35;4.72;;;;;;;21.54;30.59;99314.59;5060133;28;20337;-69
2021/05/03 02:38:59;;;;;;;26.73;3.22;;;;;;;21.46;30.57;99314.19;5060341;28;20045;-74
2021/05/03 02:41:24;;;;;;;23.08;3.00;;;;;;;21.49;30.64;99324.47;5060984;28;20029;-69
2021/05/03 02:43:49;;;;;;;18.75;3.22;;;;;;;21.55;30.67;99318.94;5063285;28;20033;-74
2021/05/03 02:46:15;;;;;;;30.42;3.65;;;;;;;21.47;30.82;99323.91;5062107;28;20041;-69
2021/05/03 02:48:40;;;;;;;23.40;3.08;;;;;;;21.44;31.37;99333.28;5059340;28;20064;-74
2021/05/03 02:51:06;;;;;;;17.95;2.67;;;;;;;21.23;31.78;99350.97;5059588;28;20032;-69
2021/05/03 02:53:32;;;;;;;17.80;3.00;;;;;;;21.22;31.94;99370.00;5059826;28;20060;-69
2021/05/03 02:55:57;;;;;;;19.30;3.20;;;;;;;21.19;32.22;99378.56;5059646;28;20041;-69
2021/05/03 02:58:23;;;;;;;18.88;3.33;;;;;;;21.15;32.36;99375.53;5063615;28;20032;-74
2021/05/03 03:00:48;;;;;;;20.88;2.95;;;;;;;21.22;32.42;99381.63;5062956;28;20253;-74
2021/05/03 03:03:14;;;;;;;18.50;3.15;;;;;;;20.98;32.04;99378.16;5058217;28;20105;-74
2021/05/03 03:05:39;;;;;;;21.88;3.25;;;;;;;21.00;32.05;99392.22;5058882;28;20151;-69
2021/05/03 03:08:05;;;;;;;18.98;3.53;;;;;;;21.03;31.39;99399.00;5061264;28;20043;-69
2021/05/03 03:10:31;;;;;;;14.93;2.75;;;;;;;21.13;31.23;99401.88;5062917;28;20029;-69
2021/05/03 03:13:00;;;;;;;15.75;2.92;;;;;;;21.12;31.11;99402.13;5060871;28;20074;-74
2021/05/03 03:15:29;;;;;;;14.77;2.70;;;;;;;21.15;31.06;99402.47;5059806;28;20047;-69
2021/05/03 03:17:54;;;;;;;15.77;2.53;;;;;;;21.02;31.04;99395.47;5059974;28;20040;-75
2021/05/03 03:20:20;;;;;;;17.83;2.50;;;;;;;20.95;31.39;99412.81;5058985;28;20025;-75
2021/05/03 03:22:46;;;;;;;12.10;2.22;;;;;;;20.94;30.96;99420.06;5059588;28;20057;-75
2021/05/03 03:25:13;;;;;;;18.52;2.72;;;;;;;20.92;31.01;99435.63;5058697;28;20043;-72
2021/05/03 03:27:39;;;;;;;20.08;2.55;;;;;;;20.89;31.01;99438.81;5059821;28;20037;-69
2021/05/03 03:30:06;;;;;;;10.30;2.80;;;;;;;20.90;30.83;99437.75;5058596;28;20037;-69
2021/05/03 03:32:32;;;;;;;22.30;3.35;;;;;;;20.68;31.14;99413.28;5059249;28;20045;-75
2021/05/03 03:34:57;;;;;;;16.05;2.38;;;;;;;20.75;30.89;99447.34;5059134;28;20037;-74
2021/05/03 03:37:23;;;;;;;13.25;2.70;;;;;;;20.82;30.94;99458.81;5058673;28;20055;-69
2021/05/03 03:39:48;;;;;;;21.63;3.20;;;;;;;20.93;30.53;99460.69;5059555;28;20029;-69
2021/05/03 03:42:14;;;;;;;14.20;3.03;;;;;;;20.76;30.98;99454.34;5058682;28;20039;-69
2021/05/03 03:44:39;;;;;;;15.77;2.83;;;;;;;20.72;31.24;99456.69;5058967;28;20214;-74
2021/05/03 03:47:05;;;;;;;16.52;3.22;;;;;;;20.64;31.35;99452.47;5058941;28;20055;-69
2021/05/03 03:49:30;;;;;;;24.60;3.65;;;;;;;20.69;31.16;99463.38;5058278;28;20052;-74
2021/05/03 03:51:56;;;;;;;13.18;3.05;;;;;;;20.73;30.99;99456.47;5059145;28;20024;-69
2021/05/03 03:54:21;;;;;;;12.90;3.35;;;;;;;20.78;30.76;99463.00;5062289;28;20033;-69
2021/05/03 03:56:47;;;;;;;12.32;3.13;;;;;;;20.93;30.51;99461.50;5058226;28;20037;-69
2021/05/03 03:59:14;;;;;;;14.88;3.45;;;;;;;20.94;30.35;99475.78;5059409;28;20032;-70
2021/05/03 04:01:41;;;;;;;19.30;3.17;;;;;;;20.88;30.46;99466.78;5059231;28;20028;-75
2021/05/03 04:04:13;;;;;;;16.20;3.30;;;;;;;20.84;30.73;99476.38;5057494;28;20052;-74
2021/05/03 04:06:47;;;;;;;14.57;2.97;;;;;;;20.93;30.58;99472.28;5069156;28;20346;-75
2021/05/03 04:25:33;;;;;;;14.13;3.33;;;;;;;21.15;30.11;99455.50;5058938;28;20080;-74
2021/05/03 04:27:58;;;;;;;12.15;2.70;;;;;;;21.20;29.82;99482.53;5057343;28;20275;-69
2021/05/03 04:30:24;;;;;;;11.30;3.45;;;;;;;21.19;29.94;99495.16;5061321;28;20040;-69
2021/05/03 04:32:49;;;;;;;11.93;2.78;;;;;;;21.24;30.24;99513.34;5060556;28;20041;-69
2021/05/03 04:35:15;;;;;;;14.48;3.63;;;;;;;21.19;30.35;99489.78;5057533;28;20044;-69
2021/05/03 04:37:40;;;;;;;15.85;3.05;;;;;;;21.20;29.96;99490.59;5058011;28;20066;-75
2021/05/03 04:40:06;;;;;;;11.88;2.15;;;;;;;21.37;29.75;99502.31;5060999;28;20041;-69
2021/05/03 04:42:32;;;;;;;9.75;2.58;;;;;;;21.43;29.74;99500.53;5058283;28;20049;-75
2021/05/03 04:44:57;;;;;;;12.43;2.70;;;;;;;21.37;29.60;99496.09;5057582;28;20041;-74
2021/05/03 04:47:23;;;;;;;17.55;2.78;;;;;;;21.36;30.21;99514.13;5058655;28;20033;-69
2021/05/03 04:49:48;;;;;;;16.05;3.00;;;;;;;21.45;30.15;99533.44;5057297;28;20270;-75
2021/05/03 04:52:14;;;;;;;17.35;2.83;;;;;;;21.61;30.04;99541.59;5058535;28;20035;-69
2021/05/03 04:54:40;;;;;;;18.17;3.00;;;;;;;21.65;30.42;99533.84;5057518;28;20041;-74
2021/05/03 04:57:06;;;;;;;18.23;3.28;;;;;;;21.70;30.13;99525.03;5057567;28;20067;-69
2021/05/03 04:59:31;;;;;;;17.30;2.65;;;;;;;21.84;29.91;99538.00;5058396;28;20029;-69
2021/05/03 05:01:57;;;;;;;18.50;3.38;;;;;;;21.80;30.15;99547.63;5057223;28;20052;-74
2021/05/03 05:04:22;;;;;;;19.85;3.25;;;;;;;21.80;30.51;99547.63;5057940;28;20060;-69
2021/05/03 05:06:48;;;;;;;14.18;2.33;;;;;;;21.82;30.74;99539.28;5058277;28;20384;-74
2021/05/03 05:09:13;;;;;;;10.90;2.88;;;;;;;21.85;31.17;99542.34;5060311;28;20207;-75
2021/05/03 05:11:39;;;;;;;13.18;2.88;;;;;;;21.90;31.23;99544.34;5060940;28;20058;-74
2021/05/03 05:14:04;;;;;;;12.32;2.65;;;;;;;21.88;31.30;99536.50;5059735;28;20037;-75
2021/05/03 05:16:30;;;;;;;10.13;2.95;;;;;;;21.98;31.16;99547.47;5060778;28;20021;-74
2021/05/03 05:18:55;;;;;;;17.50;2.90;;;;;;;22.04;31.04;99552.97;5060371;28;20048;-75
2021/05/03 05:21:21;;;;;;;16.17;3.22;;;;;;;22.19;31.36;99554.06;5059569;28;20036;-75
2021/05/03 05:23:48;;;;;;;16.73;2.85;;;;;;;22.40;31.16;99551.75;5061100;28;20092;-75
2021/05/03 05:26:14;;;;;;;16.55;3.00;;;;;;;22.62;30.40;99556.16;5068192;28;20033;-75
2021/05/03 05:28:40;;;;;;;18.33;2.78;;;;;;;22.94;29.82;99563.75;5061914;28;20029;-69
2021/05/03 05:31:05;;;;;;;18.38;3.17;;;;;;;23.24;29.23;99563.38;5061264;28;20078;-69
2021/05/03 05:33:31;;;;;;;16.33;3.10;;;;;;;23.31;29.17;99582.09;5060444;28;20039;-69
2021/05/03 05:35:57;;;;;;;18.08;2.90;;;;;;;23.29;29.20;99582.34;5059623;28;20041;-75
2021/05/03 05:38:22;;;;;;;13.02;3.28;;;;;;;23.32;29.55;99578.34;5059694;28;20031;-69
2021/05/03 05:40:49;;;;;;;16.35;2.95;;;;;;;23.34;29.14;99578.91;5063106;28;20059;-75
2021/05/03 05:43:15;;;;;;;11.98;2.35;;;;;;;23.44;30.01;99590.66;5063959;28;20067;-75
2021/05/03 05:45:41;;;;;;;22.00;3.38;;;;;;;23.45;29.88;99580.66;5064324;28;20025;-69
2021/05/03 05:48:07;;;;;;;10.65;2.50;;;;;;;23.56;29.99;99588.69;5063800;28;20033;-75
2021/05/03 05:50:33;;;;;;;13.40;2.22;;;;;;;23.80;30.20;99583.84;5080340;28;20367;-74
2021/05/03 05:52:58;;;;;;;15.50;2.60;;;;;;;23.91;29.94;99587.50;5059141;28;20036;-69
2021/05/03 05:55:24;;;;;;;14.13;2.40;;;;;;;23.93;30.23;99590.78;5060767;28;20433;-75
2021/05/03 05:57:50;;;;;;;14.02;2.10;;;;;;;23.98;29.85;99587.31;5059564;28;20249;-70
2021/05/03 06:00:16;;;;;;;13.07;2.53;;;;;;;24.05;29.71;99591.47;5059312;28;20028;-69
2021/05/03 06:02:41;;;;;;;14.05;2.80;;;;;;;23.92;30.22;99602.66;5060261;28;20246;-69
2021/05/03 06:05:08;;;;;;;23.33;2.67;;;;;;;23.72;30.41;99599.69;5033746;28;750229;-69
2021/05/03 06:07:33;;;;;;;11.85;2.30;;;;;;;23.88;30.51;99599.63;5060797;28;20063;-69
2021/05/03 06:09:59;;;;;;;14.23;2.20;;;;;;;24.09;30.33;99594.47;5061299;28;20037;-74
2021/05/03 06:12:24;;;;;;;13.40;2.50;;;;;;;24.13;30.52;99599.13;5060368;28;20039;-75
2021/05/03 06:14:52;;;;;;;15.55;2.22;;;;;;;24.32;30.27;99604.22;5061096;28;20338;-75
2021/05/03 06:17:18;;;;;;;9.80;2.35;;;;;;;24.19;30.55;99613.53;5059652;28;20632;-75
2021/05/03 06:19:44;;;;;;;14.48;2.70;;;;;;;24.34;30.57;99610.19;5060302;28;20067;-75
2021/05/03 06:22:09;;;;;;;10.18;2.90;;;;;;;24.22;30.38;99621.13;5060692;28;20033;-69
2021/05/03 06:24:35;;;;;;;14.40;2.40;;;;;;;24.10;30.81;99623.16;5060094;28;20037;-70
2021/05/03 06:27:00;;;;;;;18.58;2.70;;;;;;;24.13;30.48;99630.78;5060748;28;20027;-74
2021/05/03 06:29:26;;;;;;;6.65;2.38;;;;;;;24.00;30.78;99614.94;5060210;28;20045;-73
2021/05/03 06:31:53;;;;;;;12.40;3.28;;;;;;;24.31;31.22;99635.88;5060893;28;20314;-70
2021/05/03 06:34:18;;;;;;;15.85;2.72;;;;;;;24.27;31.15;99637.47;5059749;28;20093;-75
2021/05/03 06:36:44;;;;;;;14.85;2.80;;;;;;;24.29;31.35;99631.78;5060093;28;20020;-70
2021/05/03 06:39:09;;;;;;;18.33;3.35;;;;;;;24.31;31.38;99640.47;5060408;28;20033;-70
2021/05/03 06:41:34;;;;;;;11.40;2.75;;;;;;;24.46;31.45;99640.63;5059658;28;20032;-75
2021/05/03 06:44:00;;;;;;;17.85;3.50;;;;;;;24.52;31.02;99635.00;5060593;28;20043;-69
2021/05/03 06:46:25;;;;;;;30.25;3.85;;;;;;;24.45;31.46;99626.28;5059476;28;20029;-70
2021/05/03 06:48:51;;;;;;;15.90;3.20;;;;;;;24.72;31.32;99638.97;5060074;28;20325;-75
2021/05/03 06:51:16;;;;;;;9.93;3.55;;;;;;;25.05;31.02;99643.38;5060260;28;20238;-74
2021/05/03 06:53:42;;;;;;;19.33;2.97;;;;;;;25.29;30.84;99647.34;5057478;28;20032;-70
2021/05/03 06:56:07;;;;;;;14.77;3.22;;;;;;;25.48;30.38;99641.50;5060480;28;20029;-75
2021/05/03 06:58:33;;;;;;;17.23;3.38;;;;;;;25.79;30.03;99640.63;5058184;28;20037;-76
2021/05/03 07:00:58;;;;;;;25.35;4.90;;;;;;;26.00;29.45;99641.53;5063388;28;20029;-69
2021/05/03 07:03:23;;;;;;;31.08;5.65;;;;;;;26.36;29.08;99637.91;5060485;28;20035;-70
2021/05/03 07:05:49;;;;;;;22.52;5.13;;;;;;;26.48;28.32;99631.41;5059137;28;20041;-70
2021/05/03 07:08:15;;;;;;;20.88;4.68;;;;;;;26.28;28.94;99615.84;5060601;28;20067;-75
2021/05/03 07:10:44;;;;;;;35.33;5.40;;;;;;;25.91;28.69;99643.94;5059323;28;20053;-70
2021/05/03 07:13:09;;;;;;;17.40;4.00;;;;;;;25.94;27.77;99642.59;5059145;28;20070;-76
2021/05/03 07:15:35;;;;;;;29.13;5.13;;;;;;;25.67;28.43;99651.69;5059108;28;20332;-76
2021/05/03 07:18:00;;;;;;;37.60;5.40;;;;;;;25.67;28.45;99659.00;5059959;28;20114;-75
2021/05/03 07:20:26;;;;;;;21.35;4.32;;;;;;;25.90;28.09;99650.44;5063172;28;20381;-69
2021/05/03 07:22:52;;;;;;;17.48;3.58;;;;;;;26.17;27.79;99644.06;5063430;28;20037;-75
2021/05/03 07:25:18;;;;;;;28.38;4.05;;;;;;;26.24;26.90;99629.16;5062695;28;20025;-75
2021/05/03 07:27:43;;;;;;;36.20;4.43;;;;;;;26.41;27.29;99637.09;5063441;28;20246;-74
2021/05/03 07:30:11;;;;;;;21.42;4.10;;;;;;;26.61;27.41;99628.16;5062267;28;20033;-75
2021/05/03 07:32:37;;;;;;;19.92;3.92;;;;;;;26.75;26.71;99623.00;5063067;28;20040;-69
2021/05/03 07:35:05;;;;;;;16.50;3.53;;;;;;;26.63;27.16;99621.38;5062896;28;20037;-70
2021/05/03 07:37:30;;;;;;;16.55;3.20;;;;;;;26.72;27.13;99641.47;5063315;28;20095;-76
2021/05/03 07:39:56;;;;;;;20.30;4.15;;;;;;;26.70;27.38;99640.94;5062727;28;20033;-70
2021/05/03 07:42:21;;;;;;;19.58;3.22;;;;;;;26.90;27.22;99642.03;5063267;28;20238;-75
2021/05/03 07:44:47;;;;;;;12.57;3.35;;;;;;;27.22;27.75;99642.63;5062667;28;20251;-69
2021/05/03 07:47:12;;;;;;;15.00;3.60;;;;;;;27.25;27.41;99641.25;5063097;28;20047;-74
2021/05/03 07:49:39;;;;;;;22.20;4.05;;;;;;;27.30;27.20;99646.69;5062605;28;20032;-66
2021/05/03 07:52:07;;;;;;;20.38;4.85;;;;;;;27.39;27.49;99639.59;5062942;28;20071;-67
2021/05/03 07:54:33;;;;;;;17.92;4.07;;;;;;;27.18;27.92;99638.81;5062158;28;20273;-67
2021/05/03 07:56:59;;;;;;;9.13;3.33;;;;;;;27.27;27.62;99637.19;5062897;28;20037;-72
2021/05/03 07:59:24;;;;;;;14.65;3.45;;;;;;;27.49;27.62;99641.47;5062433;28;20063;-67
2021/05/03 08:01:50;;;;;;;12.30;3.50;;;;;;;27.50;27.18;99605.03;5062624;28;20029;-67
2021/05/03 08:04:15;;;;;;;15.85;3.22;;;;;;;27.86;27.61;99635.69;5061874;28;20049;-67
2021/05/03 08:06:41;;;;;;;24.05;3.83;;;;;;;28.12;27.27;99629.06;5062577;28;20029;-67
2021/05/03 08:09:06;;;;;;;20.67;3.67;;;;;;;28.21;26.71;99621.94;5062211;28;20041;-73
2021/05/03 08:11:34;;;;;;;14.25;3.20;;;;;;;28.31;27.25;99623.00;5062089;28;20021;-72
2021/05/03 08:14:00;;;;;;;15.13;3.72;;;;;;;28.37;27.20;99627.31;5062124;28;20221;-67
2021/05/03 08:16:27;;;;;;;19.58;3.63;;;;;;;28.62;27.39;99624.41;5062901;28;20242;-73
2021/05/03 08:18:53;;;;;;;13.88;3.13;;;;;;;28.45;27.07;99627.53;5060490;28;20079;-67
2021/05/03 08:21:18;;;;;;;20.83;3.35;;;;;;;28.17;27.77;99626.31;5058581;28;20104;-67
2021/05/03 08:23:44;;;;;;;23.40;4.10;;;;;;;28.30;27.67;99622.19;5062276;28;20028;-67
2021/05/03 08:26:10;;;;;;;19.10;3.70;;;;;;;28.74;27.29;99632.25;5061994;28;20231;-67
2021/05/03 08:28:36;;;;;;;18.40;3.33;;;;;;;29.14;27.01;99620.22;5062431;28;20028;-70
2021/05/03 08:31:01;;;;;;;21.58;3.83;;;;;;;29.14;25.88;99622.97;5062422;28;20361;-75
2021/05/03 08:33:27;;;;;;;29.63;4.95;;;;;;;29.41;25.64;99625.97;5062026;28;20026;-75
2021/05/03 08:35:56;;;;;;;17.10;4.07;;;;;;;29.50;25.56;99615.25;5062139;28;20029;-69
2021/05/03 08:38:21;;;;;;;26.80;5.10;;;;;;;29.48;24.93;99625.63;5062715;28;20032;-75
2021/05/03 08:40:47;;;;;;;21.50;3.47;;;;;;;29.86;25.90;99630.09;5077040;28;20342;-75
2021/05/03 08:43:13;;;;;;;15.73;3.33;;;;;;;30.01;25.67;99628.28;5061252;28;20036;-74
2021/05/03 08:45:39;;;;;;;19.02;3.30;;;;;;;30.09;25.87;99622.19;5061667;28;20056;-70
2021/05/03 08:48:15;;;;;;;25.52;3.85;;;;;;;30.39;23.52;99618.25;5061955;28;20306;-69
2021/05/03 08:53:44;;;;;;;21.67;3.30;;;;;;;29.60;23.05;99615.13;5038079;28;20224;-75
2021/05/03 08:56:11;;;;;;;18.40;3.20;;;;;;;29.79;22.41;99607.81;5056912;28;20271;-70
2021/05/03 08:58:38;;;;;;;83.00;7.63;;;;;;;29.72;22.68;99599.16;5062066;28;20037;-76
2021/05/03 09:01:04;;;;;;;11.70;3.08;;;;;;;29.75;22.78;99605.97;5059944;28;20036;-76
2021/05/03 09:03:30;;;;;;;15.25;3.28;;;;;;;29.75;22.69;99593.13;5061259;28;20027;-69
2021/05/03 09:06:03;;;;;;;14.60;2.30;;;;;;;28.93;24.08;99592.31;5062247;28;20045;-69
2021/05/03 09:08:31;;;;;;;10.77;2.70;;;;;;;29.04;23.31;99599.31;5062071;28;20056;-76
2021/05/03 09:10:56;;;;;;;26.88;4.20;;;;;;;29.07;23.24;99600.63;5060961;28;20047;-70
2021/05/03 09:13:31;;;;;;;12.45;2.78;;;;;;;29.12;23.48;99612.31;5062253;28;20685;-70
2021/05/03 09:16:17;;;;;;;24.58;3.00;;;;;;;29.30;23.88;99610.00;5061089;28;20063;-75
2021/05/03 09:18:42;;;;;;;13.02;3.00;;;;;;;29.40;23.42;99604.41;5064327;28;20173;-75
2021/05/03 09:21:33;;;;;;;15.38;3.25;;;;;;;29.43;23.27;99590.25;5061983;28;20029;-70
2021/05/03 09:24:04;;;;;;;17.38;2.80;;;;;;;29.41;23.43;99592.41;5061452;28;20053;-76
2021/05/03 09:26:44;;;;;;;13.00;2.38;;;;;;;29.27;22.33;99556.03;5061675;28;20021;-76
2021/05/03 09:29:26;;;;;;;12.52;1.98;;;;;;;29.49;23.29;99581.69;5061278;28;20342;-75
2021/05/03 09:32:19;;;;;;;26.27;2.92;;;;;;;29.40;21.88;99582.59;5055856;28;20087;-75
2021/05/03 09:34:47;;;;;;;10.15;1.98;;;;;;;29.40;21.94;99571.69;5060964;28;20037;-75
2021/05/03 09:37:35;;;;;;;15.07;2.22;;;;;;;29.42;20.84;99596.75;5058016;28;20037;-74
2021/05/03 09:40:18;;;;;;;26.85;3.40;;;;;;;29.37;20.79;99591.38;5057717;28;20072;-69
2021/05/03 09:42:53;;;;;;;14.00;2.28;;;;;;;29.11;22.27;99588.06;5057270;28;20033;-69
2021/05/03 09:45:22;;;;;;;15.90;2.97;;;;;;;29.07;22.77;99590.53;5056832;28;20090;-75
2021/05/03 09:47:50;;;;;;;32.38;2.92;;;;;;;29.15;21.98;99580.97;5056735;28;20254;-75
2021/05/03 09:50:31;;;;;;;15.63;2.38;;;;;;;29.43;21.92;99588.31;5057609;28;20028;-75
2021/05/03 09:53:07;;;;;;;11.98;2.35;;;;;;;29.43;21.83;99591.06;5062116;28;20025;-75
2021/05/03 09:55:54;;;;;;;11.57;2.08;;;;;;;29.42;22.68;99597.56;5063842;28;20103;-69
2021/05/03 09:58:24;;;;;;;7.55;1.75;;;;;;;29.15;20.78;99597.31;5064997;28;20029;-75
2021/05/03 10:00:55;;;;;;;32.60;2.72;;;;;;;29.03;20.82;99584.03;5064465;28;20333;-70
2021/05/03 10:03:48;;;;;;;15.20;1.88;;;;;;;28.84;21.29;99594.84;5060510;28;20234;-75
2021/05/03 10:06:16;;;;;;;18.05;1.83;;;;;;;28.83;21.64;99595.09;5058041;28;20272;-75
2021/05/03 10:08:46;;;;;;;22.25;2.10;;;;;;;28.76;22.68;99600.06;5060675;28;20025;-69
2021/05/03 10:11:15;;;;;;;8.18;1.60;;;;;;;28.78;22.78;99589.69;5060981;28;20032;-75
2021/05/03 10:13:42;;;;;;;15.93;1.80;;;;;;;28.72;22.57;99593.56;5060494;28;20028;-75
2021/05/03 10:16:09;;;;;;;4.00;1.48;;;;;;;28.77;21.59;99582.63;5060256;28;20036;-70
2021/05/03 10:18:40;;;;;;;17.95;1.60;;;;;;;28.70;19.83;99591.13;5061199;28;20041;-69
2021/05/03 10:21:11;;;;;;;50.45;4.28;;;;;;;28.61;18.29;99588.19;5060799;28;20032;-69
2021/05/03 10:23:41;;;;;;;66.18;5.03;;;;;;;28.75;17.73;99601.16;5063607;28;20033;-70
2021/05/03 10:26:08;;;;;;;81.78;5.80;;;;;;;28.75;17.74;99580.19;5061802;28;20056;-70
2021/05/03 10:28:50;;;;;;;8.70;1.80;;;;;;;28.60;18.40;99594.75;5062835;28;20045;-70
2021/05/03 10:31:16;;;;;;;7.55;1.50;;;;;;;28.54;19.16;99606.78;5062446;28;20035;-69
2021/05/03 10:33:41;;;;;;;9.73;1.52;;;;;;;28.73;18.91;99597.91;5057375;28;20056;-75
2021/05/03 10:36:08;;;;;;;17.50;2.05;;;;;;;28.53;19.32;99588.00;5060373;28;20045;-69
2021/05/03 10:38:39;;;;;;;28.45;2.67;;;;;;;28.39;19.61;99603.34;5059830;28;20100;-75
2021/05/03 10:41:28;;;;;;;14.80;1.65;;;;;;;28.18;20.07;99567.22;5057988;28;20036;-75
2021/05/03 10:44:15;;;;;;;6.40;1.30;;;;;;;28.38;19.43;99601.72;5059229;28;20035;-69
2021/05/03 10:55:04;;;;;;;6.57;1.20;;;;;;;28.47;20.70;99575.50;5060238;28;20041;-75
2021/05/03 10:57:17;;;;;;;7.05;1.27;;;;;;;28.61;21.17;99571.03;5053949;28;20036;-75
2021/05/03 10:59:55;;;;;;;5.55;1.30;;;;;;;28.80;21.47;99566.50;5060466;28;20071;-69
2021/05/03 11:02:25;;;;;;;8.07;1.20;;;;;;;28.67;21.63;99560.91;5063202;28;20021;-75
2021/05/03 11:05:15;;;;;;;7.43;1.60;;;;;;;28.87;20.75;99564.28;5060601;28;20041;-76
2021/05/03 11:08:06;;;;;;;9.38;1.35;;;;;;;28.82;21.41;99561.59;5055555;28;20028;-75
2021/05/03 11:10:54;;;;;;;11.65;1.20;;;;;;;28.95;20.59;99568.31;5058177;28;20029;-75
2021/05/03 11:13:41;;;;;;;11.55;1.58;;;;;;;29.25;19.88;99572.69;5059011;28;20033;-70
2021/05/03 11:16:27;;;;;;;14.30;2.10;;;;;;;29.00;19.43;99553.81;5059884;28;20060;-70
2021/05/03 11:19:01;;;;;;;13.40;2.05;;;;;;;28.95;19.97;99537.53;5059711;28;20028;-75
2021/05/03 11:21:44;;;;;;;6.88;1.40;;;;;;;28.80;19.58;99552.06;5060073;28;20345;-69
2021/05/03 11:24:50;;;;;;;8.15;1.38;;;;;;;29.04;20.08;99550.22;5059645;28;20116;-75
2021/05/03 11:27:31;;;;;;;10.45;2.22;;;;;;;29.00;20.69;99557.38;5057325;28;20033;-69
2021/05/03 11:30:43;;;;;;;8.45;1.30;;;;;;;29.04;20.80;99552.16;5057205;28;20057;-75
2021/05/03 11:32:51;;;;;;;6.32;1.30;;;;;;;28.80;20.91;99539.25;5053254;28;20290;-69
2021/05/03 11:35:39;;;;;;;7.50;1.48;;;;;;;28.98;21.18;99548.66;5059624;28;20024;-69
2021/05/03 11:38:19;;;;;;;12.18;1.73;;;;;;;28.79;21.26;99559.44;5061966;28;20257;-69
2021/05/03 11:41:01;;;;;;;10.05;2.35;;;;;;;28.60;20.95;99545.72;5059968;28;20048;-69
2021/05/03 11:46:06;;;;;;;7.07;1.83;;;;;;;28.33;24.53;99552.72;5058837;28;20083;-69
2021/05/03 11:48:33;;;;;;;6.95;0.85;;;;;;;28.06;24.37;99545.78;5058586;28;20033;-69
2021/05/03 11:51:06;;;;;;;7.63;1.30;;;;;;;27.98;24.39;99530.84;5058455;28;20068;-75
2021/05/03 11:53:42;;;;;;;7.03;1.20;;;;;;;28.05;24.87;99546.06;5058908;28;20037;-70
2021/05/03 11:56:34;;;;;;;9.38;1.60;;;;;;;28.01;24.30;99555.88;5059203;28;20083;-69
2021/05/03 11:59:01;;;;;;;7.28;1.30;;;;;;;28.07;21.88;99543.88;5055235;28;20057;-70
2021/05/03 12:01:28;;;;;;;3.63;1.25;;;;;;;28.02;23.50;99552.06;5058713;28;20029;-76